Time;durP1;ratioP1;P1;durP2;ratioP2;P2;SDS_P1;SDS_P2;PMS_P1;PMS_P2;Temp;Humidity;BMP_temperature;BMP_pressure;BME280_temperature;BME280_humidity;BME280_pressure;Samples;Min_cycle;Max_cycle;Signal;HPM_P1;HPM_P2
2021/01/28 00:02:16;;;;;;;8.00;7.20;;;10.90;53.60;;;;;;5022491;28;20190;-41
2021/01/28 00:04:41;;;;;;;9.67;7.53;;;10.80;53.80;;;;;;5021862;28;20270;-42
2021/01/28 00:07:07;;;;;;;11.57;8.87;;;10.70;54.30;;;;;;5028998;28;20233;-41
2021/01/28 00:09:33;;;;;;;9.00;7.20;;;10.60;54.40;;;;;;5030319;28;20236;-41
2021/01/28 00:11:58;;;;;;;8.03;7.13;;;10.60;54.50;;;;;;5023134;28;20203;-42
2021/01/28 00:14:24;;;;;;;8.53;7.70;;;10.50;54.80;;;;;;5030563;28;20200;-41
2021/01/28 00:16:49;;;;;;;9.00;7.70;;;10.50;55.00;;;;;;5030079;28;20284;-41
2021/01/28 00:19:16;;;;;;;9.07;7.53;;;10.40;55.20;;;;;;5024377;28;20669;-42
2021/01/28 00:21:41;;;;;;;9.67;7.70;;;10.40;55.20;;;;;;5030772;28;20659;-42
2021/01/28 00:24:07;;;;;;;8.53;7.63;;;10.30;55.50;;;;;;5030276;28;20439;-42
2021/01/28 00:26:33;;;;;;;9.20;8.20;;;10.10;56.00;;;;;;5017438;28;20677;-42
2021/01/28 00:28:58;;;;;;;10.13;8.20;;;9.90;57.30;;;;;;5024034;28;20202;-42
2021/01/28 00:31:24;;;;;;;8.83;7.83;;;9.90;58.10;;;;;;5021262;28;20186;-42
2021/01/28 00:33:49;;;;;;;8.93;8.03;;;9.90;57.50;;;;;;5025010;28;20694;-42
2021/01/28 00:36:15;;;;;;;8.23;7.37;;;9.90;57.40;;;;;;5031111;28;20289;-42
2021/01/28 00:38:40;;;;;;;8.97;7.50;;;9.90;57.40;;;;;;5029861;28;20561;-42
2021/01/28 00:41:09;;;;;;;7.50;6.83;;;9.90;57.40;;;;;;5027770;28;20201;-42
2021/01/28 00:43:35;;;;;;;8.37;7.57;;;9.90;57.40;;;;;;5030832;28;20269;-42
2021/01/28 00:46:02;;;;;;;8.63;7.70;;;9.90;57.20;;;;;;5027504;28;20869;-41
2021/01/28 00:48:28;;;;;;;7.73;6.87;;;9.90;57.10;;;;;;5028627;28;20201;-42
2021/01/28 00:50:55;;;;;;;9.50;6.70;;;9.90;57.20;;;;;;5021795;28;20990;-42
2021/01/28 00:53:21;;;;;;;7.37;6.50;;;9.70;57.20;;;;;;5023140;28;20189;-42
2021/01/28 00:55:47;;;;;;;7.50;6.80;;;9.60;57.90;;;;;;5025764;28;20465;-42
2021/01/28 00:58:14;;;;;;;7.50;6.57;;;9.20;58.70;;;;;;5030199;28;20205;-42
2021/01/28 01:00:42;;;;;;;7.00;6.10;;;9.20;59.10;;;;;;5026773;28;20301;-42
2021/01/28 01:03:09;;;;;;;6.63;5.90;;;9.20;59.40;;;;;;5020871;28;20966;-42
2021/01/28 01:05:37;;;;;;;6.63;5.93;;;9.30;59.40;;;;;;5024344;28;20916;-42
2021/01/28 01:08:13;;;;;;;5.07;4.60;;;9.40;59.10;;;;;;5028184;28;20826;-42
2021/01/28 01:10:50;;;;;;;5.77;5.27;;;9.40;58.90;;;;;;5022265;28;20488;-42
2021/01/28 01:13:19;;;;;;;5.77;4.80;;;9.50;58.80;;;;;;5029815;28;20459;-41
2021/01/28 01:15:45;;;;;;;6.10;4.80;;;9.50;58.80;;;;;;5027302;28;20793;-42
2021/01/28 01:18:18;;;;;;;6.63;4.97;;;9.50;58.80;;;;;;5029793;28;20811;-42
2021/01/28 01:20:44;;;;;;;4.50;3.97;;;9.50;58.80;;;;;;5029448;28;20432;-42
2021/01/28 01:23:10;;;;;;;4.43;4.03;;;9.40;59.10;;;;;;5026462;28;20857;-41
2021/01/28 01:25:36;;;;;;;5.50;5.00;;;9.30;59.10;;;;;;5029210;28;20427;-42
2021/01/28 01:28:01;;;;;;;4.70;4.23;;;9.40;59.20;;;;;;5027917;28;20501;-42
2021/01/28 01:30:27;;;;;;;4.93;4.43;;;9.20;59.70;;;;;;5028062;28;20275;-42
2021/01/28 01:32:54;;;;;;;5.93;4.40;;;9.20;59.70;;;;;;5027862;28;20613;-42
2021/01/28 01:35:22;;;;;;;6.07;4.87;;;9.20;60.30;;;;;;5025793;28;20479;-42
2021/01/28 01:37:49;;;;;;;6.60;5.20;;;8.90;59.90;;;;;;5028321;28;20442;-42
2021/01/28 01:40:22;;;;;;;6.00;5.40;;;8.70;60.60;;;;;;5028375;28;20443;-42
2021/01/28 01:42:48;;;;;;;5.73;5.10;;;8.70;61.50;;;;;;5024719;28;20459;-41
2021/01/28 01:45:15;;;;;;;6.60;5.67;;;8.80;61.20;;;;;;5029762;28;20486;-42
2021/01/28 01:47:53;;;;;;;5.70;5.20;;;8.90;61.10;;;;;;5030490;28;20539;-42
2021/01/28 01:50:31;;;;;;;6.37;5.77;;;9.10;60.40;;;;;;5027946;28;20483;-42
2021/01/28 01:52:58;;;;;;;6.47;5.20;;;9.20;59.80;;;;;;5024485;28;20446;-42
2021/01/28 01:55:24;;;;;;;6.07;5.23;;;9.20;59.60;;;;;;5031669;28;20526;-42
2021/01/28 01:57:50;;;;;;;5.80;4.50;;;9.30;59.40;;;;;;5031166;28;20843;-42
2021/01/28 02:00:20;;;;;;;5.27;4.77;;;9.30;59.50;;;;;;5026230;28;20428;-42
2021/01/28 02:02:48;;;;;;;5.80;4.80;;;9.40;59.30;;;;;;5020854;28;20212;-42
2021/01/28 02:05:24;;;;;;;5.03;4.53;;;9.50;59.10;;;;;;5022930;28;20805;-42
2021/01/28 02:07:50;;;;;;;5.60;5.00;;;9.50;59.00;;;;;;5024067;28;20479;-42
2021/01/28 02:10:17;;;;;;;6.57;4.77;;;9.50;58.90;;;;;;5029173;28;20539;-41
2021/01/28 02:12:43;;;;;;;4.57;4.13;;;9.60;58.90;;;;;;5029635;28;20436;-42
2021/01/28 02:15:10;;;;;;;5.07;4.20;;;9.60;59.00;;;;;;5034113;28;20420;-42
2021/01/28 02:17:39;;;;;;;4.10;3.70;;;9.60;59.10;;;;;;5028423;28;20189;-42
2021/01/28 02:20:07;;;;;;;5.77;4.40;;;9.40;59.30;;;;;;5031793;28;20436;-42
2021/01/28 02:22:57;;;;;;;4.57;4.17;;;9.20;59.60;;;;;;5030389;28;20493;-42
2021/01/28 02:25:31;;;;;;;4.50;4.10;;;9.20;60.10;;;;;;5026972;28;20488;-42
2021/01/28 02:28:16;;;;;;;4.60;3.87;;;9.00;60.10;;;;;;5030776;28;20456;-42
2021/01/28 02:30:42;;;;;;;6.17;4.83;;;9.00;60.60;;;;;;5028403;28;20606;-42
2021/01/28 02:33:10;;;;;;;4.27;3.57;;;8.80;61.10;;;;;;5024829;28;20444;-42
2021/01/28 02:35:38;;;;;;;4.60;3.90;;;8.90;61.30;;;;;;5031485;28;20432;-41
2021/01/28 02:38:10;;;;;;;4.97;4.47;;;8.90;61.40;;;;;;5032891;28;20546;-41
2021/01/28 02:40:37;;;;;;;4.40;3.97;;;8.80;61.70;;;;;;5014615;28;20433;-41
2021/01/28 02:43:03;;;;;;;6.13;4.80;;;8.80;62.50;;;;;;5029126;28;20439;-41
2021/01/28 02:45:35;;;;;;;4.43;4.03;;;8.70;61.20;;;;;;5021606;28;21512;-42
2021/01/28 02:48:05;;;;;;;4.67;3.57;;;8.90;61.40;;;;;;5026377;28;20312;-41
2021/01/28 02:50:31;;;;;;;5.10;4.50;;;8.90;61.10;;;;;;5020167;28;20572;-42
2021/01/28 02:52:59;;;;;;;5.40;4.20;;;9.00;61.10;;;;;;5032534;28;20432;-41
2021/01/28 02:55:28;;;;;;;4.47;4.07;;;9.10;60.50;;;;;;5031677;28;20462;-41
2021/01/28 02:57:54;;;;;;;5.10;3.80;;;9.10;60.60;;;;;;5031876;28;20519;-42
2021/01/28 03:00:34;;;;;;;3.47;3.17;;;9.20;60.40;;;;;;5026570;28;20432;-42
2021/01/28 03:03:13;;;;;;;3.77;3.47;;;8.90;60.80;;;;;;5025770;28;20435;-41
2021/01/28 03:05:39;;;;;;;4.43;4.00;;;8.90;61.80;;;;;;5027808;28;20873;-42
2021/01/28 03:08:05;;;;;;;4.13;3.70;;;8.90;62.00;;;;;;5020859;28;20564;-42
2021/01/28 03:10:30;;;;;;;4.90;4.00;;;9.00;61.30;;;;;;5025330;28;20579;-41
2021/01/28 03:12:56;;;;;;;4.80;4.13;;;9.10;61.10;;;;;;5020879;28;20437;-41
2021/01/28 03:15:23;;;;;;;4.27;3.37;;;9.20;60.20;;;;;;5026938;28;20201;-42
2021/01/28 03:17:50;;;;;;;4.10;3.70;;;9.00;60.90;;;;;;5030460;28;20679;-41
2021/01/28 03:20:16;;;;;;;3.90;3.57;;;8.90;61.40;;;;;;5017259;28;20445;-41
2021/01/28 03:22:42;;;;;;;3.47;3.20;;;8.70;62.00;;;;;;5028377;28;21006;-42
2021/01/28 03:25:11;;;;;;;4.37;3.30;;;8.50;62.20;;;;;;5029619;28;20455;-41
2021/01/28 03:27:37;;;;;;;2.60;2.40;;;8.40;63.00;;;;;;5023560;28;20281;-42
2021/01/28 03:30:12;;;;;;;3.60;2.93;;;8.10;63.50;;;;;;5029598;28;20633;-42
2021/01/28 03:32:37;;;;;;;3.60;2.90;;;8.20;64.40;;;;;;5024233;28;20202;-41
2021/01/28 03:35:05;;;;;;;3.50;3.20;;;8.00;65.30;;;;;;5028560;28;21005;-41
2021/01/28 03:37:31;;;;;;;4.10;3.37;;;8.20;65.00;;;;;;5029820;28;20700;-41
2021/01/28 03:39:56;;;;;;;5.27;4.43;;;8.60;64.00;;;;;;5031325;28;20432;-41
2021/01/28 03:42:22;;;;;;;6.33;3.60;;;8.80;62.80;;;;;;5026046;28;20532;-41
2021/01/28 03:44:47;;;;;;;4.03;3.70;;;8.70;62.50;;;;;;5019645;28;20697;-41
2021/01/28 03:47:13;;;;;;;3.60;3.30;;;8.80;62.40;;;;;;5030005;28;20205;-42
2021/01/28 03:49:39;;;;;;;4.17;3.77;;;8.70;62.70;;;;;;5030818;28;20225;-44
2021/01/28 03:52:04;;;;;;;3.77;3.37;;;8.80;62.90;;;;;;5027546;28;20205;-41
2021/01/28 03:54:30;;;;;;;4.23;3.67;;;8.80;62.80;;;;;;5030036;28;20221;-42
2021/01/28 03:56:55;;;;;;;3.90;3.50;;;8.60;62.90;;;;;;5030778;28;20193;-42
2021/01/28 03:59:21;;;;;;;4.73;3.40;;;8.50;63.70;;;;;;5024996;28;20594;-42
2021/01/28 04:01:47;;;;;;;3.63;2.93;;;8.30;64.20;;;;;;5022969;28;20201;-42
2021/01/28 04:04:12;;;;;;;3.70;3.20;;;8.50;64.60;;;;;;5029405;28;20201;-42
2021/01/28 04:06:38;;;;;;;3.40;3.10;;;8.50;63.60;;;;;;5032018;28;20233;-42
2021/01/28 04:09:03;;;;;;;4.40;3.80;;;8.20;64.20;;;;;;5029242;28;20565;-42
2021/01/28 04:11:29;;;;;;;4.70;4.20;;;8.20;64.50;;;;;;5026541;28;20690;-42
2021/01/28 04:13:54;;;;;;;9.50;6.23;;;8.30;64.50;;;;;;5024461;28;20804;-42
2021/01/28 04:16:20;;;;;;;6.27;5.63;;;8.50;64.10;;;;;;5031427;28;20197;-42
2021/01/28 04:18:46;;;;;;;5.97;4.80;;;8.80;63.00;;;;;;5022113;28;20277;-42
2021/01/28 04:21:11;;;;;;;6.03;4.77;;;8.90;62.10;;;;;;5031997;28;20195;-42
2021/01/28 04:23:37;;;;;;;5.57;4.03;;;9.10;62.00;;;;;;5024674;28;20225;-42
2021/01/28 04:26:03;;;;;;;3.50;3.20;;;9.20;61.80;;;;;;5024316;28;20190;-42
2021/01/28 04:28:28;;;;;;;6.20;3.67;;;9.20;61.30;;;;;;5024793;28;20263;-42
2021/01/28 04:30:54;;;;;;;5.90;3.07;;;9.30;61.40;;;;;;5024480;28;20959;-42
2021/01/28 04:33:20;;;;;;;4.30;3.10;;;9.20;61.30;;;;;;5028257;28;20209;-42
2021/01/28 04:35:45;;;;;;;5.40;3.57;;;9.20;61.60;;;;;;5030786;28;20197;-42
2021/01/28 04:38:11;;;;;;;4.97;3.63;;;9.10;61.90;;;;;;5025142;28;20197;-42
2021/01/28 04:40:50;;;;;;;5.10;4.27;;;9.10;62.00;;;;;;5029606;28;20225;-42
2021/01/28 04:43:28;;;;;;;7.07;4.70;;;8.80;62.90;;;;;;5029054;28;20564;-42
2021/01/28 04:45:57;;;;;;;6.00;4.60;;;8.50;63.70;;;;;;5025391;28;20444;-42
2021/01/28 04:48:23;;;;;;;6.10;5.37;;;8.20;64.60;;;;;;5028766;28;20463;-42
2021/01/28 04:50:50;;;;;;;5.70;5.10;;;8.10;65.50;;;;;;5026022;28;20500;-42
2021/01/28 04:53:33;;;;;;;5.30;4.30;;;8.20;65.60;;;;;;5028244;28;20420;-42
2021/01/28 04:56:06;;;;;;;5.50;4.63;;;8.60;64.80;;;;;;5022201;28;20444;-42
2021/01/28 04:58:32;;;;;;;5.60;4.90;;;8.90;63.70;;;;;;5027207;28;20440;-42
2021/01/28 05:00:57;;;;;;;5.47;4.70;;;9.10;63.60;;;;;;5027706;28;20432;-43
2021/01/28 05:03:28;;;;;;;5.30;4.30;;;9.30;62.30;;;;;;5024597;28;20228;-42
2021/01/28 05:05:59;;;;;;;6.20;4.03;;;9.40;62.00;;;;;;5027100;28;20273;-42
2021/01/28 05:08:25;;;;;;;4.43;4.07;;;9.40;61.70;;;;;;5012842;28;21130;-42
2021/01/28 05:10:54;;;;;;;4.53;3.80;;;9.50;61.60;;;;;;5022203;28;20571;-42
2021/01/28 05:13:46;;;;;;;3.47;3.13;;;9.50;61.10;;;;;;5015576;28;20226;-42
2021/01/28 05:16:39;;;;;;;4.70;4.20;;;9.20;61.10;;;;;;5028633;28;20514;-42
2021/01/28 05:19:09;;;;;;;5.03;4.00;;;9.10;62.50;;;;;;5028710;28;20441;-42
2021/01/28 05:21:42;;;;;;;5.50;4.37;;;9.20;62.30;;;;;;5026761;28;20873;-42
2021/01/28 05:24:30;;;;;;;9.03;4.80;;;9.20;61.80;;;;;;5027575;28;21045;-42
2021/01/28 05:27:15;;;;;;;5.63;5.00;;;9.10;61.40;;;;;;5021522;28;20959;-42
2021/01/28 05:29:43;;;;;;;6.13;4.63;;;8.90;62.60;;;;;;5029272;28;20484;-42
2021/01/28 05:32:37;;;;;;;7.60;6.00;;;8.90;63.10;;;;;;5021674;28;20463;-42
2021/01/28 05:35:30;;;;;;;9.70;6.80;;;8.70;63.60;;;;;;5004458;28;20449;-42
2021/01/28 05:38:06;;;;;;;13.30;7.23;;;8.90;63.60;;;;;;5022334;28;20462;-42
2021/01/28 05:40:32;;;;;;;6.03;5.17;;;9.20;62.90;;;;;;5028106;28;20581;-42
2021/01/28 05:42:58;;;;;;;5.70;5.10;;;9.30;62.10;;;;;;5029003;28;21717;-41
2021/01/28 05:45:37;;;;;;;5.00;4.50;;;9.40;61.80;;;;;;5030000;28;20460;-42
2021/01/28 05:48:29;;;;;;;6.03;5.30;;;9.40;61.60;;;;;;5024290;28;20463;-42
2021/01/28 05:51:34;;;;;;;7.23;5.33;;;9.30;61.70;;;;;;5029748;28;20495;-42
2021/01/28 05:54:03;;;;;;;5.57;4.30;;;9.40;61.70;;;;;;4998521;28;20456;-42
2021/01/28 05:56:32;;;;;;;4.27;3.87;;;9.30;61.90;;;;;;5025494;28;20929;-42
2021/01/28 05:59:13;;;;;;;4.87;4.27;;;9.20;62.10;;;;;;5027614;28;20432;-42
2021/01/28 06:02:00;;;;;;;5.07;4.27;;;9.30;62.40;;;;;;5023392;28;20928;-42
2021/01/28 06:04:37;;;;;;;4.03;3.63;;;9.50;62.10;;;;;;5021319;28;20584;-41
2021/01/28 06:07:31;;;;;;;4.20;3.90;;;9.10;62.70;;;;;;5019563;28;20464;-42
2021/01/28 06:10:19;;;;;;;4.50;3.77;;;9.20;63.20;;;;;;5023628;28;20480;-42
2021/01/28 06:13:12;;;;;;;5.30;3.93;;;9.10;63.40;;;;;;5029828;28;20475;-42
2021/01/28 06:15:43;;;;;;;4.40;3.97;;;9.20;63.80;;;;;;5025314;28;20905;-42
2021/01/28 06:18:28;;;;;;;4.17;3.60;;;9.40;64.00;;;;;;5021316;28;20497;-42
2021/01/28 06:21:05;;;;;;;5.20;4.30;;;9.50;63.70;;;;;;5018427;28;20439;-42
2021/01/28 06:23:42;;;;;;;9.40;3.60;;;9.60;62.30;;;;;;5024801;28;20513;-43
2021/01/28 06:26:31;;;;;;;5.60;3.67;;;9.20;63.40;;;;;;5030144;28;20447;-43
2021/01/28 06:29:08;;;;;;;7.03;4.67;;;9.70;63.60;;;;;;5028619;28;20436;-42
2021/01/28 06:31:43;;;;;;;5.60;4.43;;;10.00;61.10;;;;;;5030403;28;20501;-42
2021/01/28 06:34:27;;;;;;;9.73;4.97;;;10.30;59.30;;;;;;5027543;28;20440;-42
2021/01/28 06:37:13;;;;;;;5.60;4.80;;;10.40;58.70;;;;;;5028788;28;20849;-42
2021/01/28 06:39:44;;;;;;;6.30;4.17;;;10.50;58.70;;;;;;5015007;28;20454;-42
2021/01/28 06:42:34;;;;;;;7.63;4.47;;;10.50;58.10;;;;;;5030147;28;20428;-42
2021/01/28 06:45:13;;;;;;;10.07;5.30;;;10.20;58.70;;;;;;5036685;28;20585;-42
2021/01/28 06:48:05;;;;;;;6.80;5.27;;;10.40;58.40;;;;;;5022917;28;20436;-42
2021/01/28 06:50:56;;;;;;;8.10;5.40;;;10.70;58.00;;;;;;5022935;28;20555;-42
2021/01/28 06:53:27;;;;;;;7.57;5.77;;;10.70;57.60;;;;;;5026745;28;20467;-42
2021/01/28 06:56:04;;;;;;;7.53;5.90;;;10.80;57.40;;;;;;5035392;28;20457;-42
2021/01/28 06:58:48;;;;;;;5.97;5.10;;;10.60;58.80;;;;;;5028790;28;20442;-42
2021/01/28 07:01:21;;;;;;;6.13;5.50;;;10.70;58.30;;;;;;5030080;28;21021;-42
2021/01/28 07:03:58;;;;;;;7.03;6.33;;;10.90;57.80;;;;;;5013508;28;21326;-42
2021/01/28 07:06:48;;;;;;;6.70;6.00;;;10.70;57.70;;;;;;5038286;28;20447;-42
2021/01/28 07:09:34;;;;;;;6.20;5.20;;;10.70;57.60;;;;;;5021164;28;20529;-42
2021/01/28 07:12:04;;;;;;;7.50;6.07;;;10.40;58.20;;;;;;5027652;28;20479;-42
2021/01/28 07:14:30;;;;;;;9.30;5.70;;;10.50;58.40;;;;;;5022039;28;20448;-42
2021/01/28 07:17:12;;;;;;;6.57;5.90;;;10.20;57.70;;;;;;5034657;28;20754;-42
2021/01/28 07:19:41;;;;;;;7.00;5.90;;;10.20;59.20;;;;;;5022607;28;20200;-42
2021/01/28 07:22:34;;;;;;;7.57;6.77;;;10.10;58.90;;;;;;5022312;28;20443;-42
2021/01/28 07:25:36;;;;;;;8.83;6.30;;;9.90;59.70;;;;;;5032683;28;20823;-42
2021/01/28 07:28:22;;;;;;;9.40;6.73;;;9.80;60.40;;;;;;5003596;28;20456;-42
2021/01/28 07:31:08;;;;;;;7.87;7.03;;;9.70;60.70;;;;;;5026755;28;20510;-42
2021/01/28 07:33:40;;;;;;;6.00;5.40;;;9.50;61.80;;;;;;5029492;28;20443;-42
2021/01/28 07:36:25;;;;;;;8.70;6.40;;;9.80;61.30;;;;;;5018477;28;20936;-42
2021/01/28 07:39:15;;;;;;;8.27;6.20;;;10.00;59.70;;;;;;5025519;28;20451;-42
2021/01/28 07:41:54;;;;;;;8.10;5.53;;;9.90;60.90;;;;;;5023165;28;20449;-42
2021/01/28 07:44:37;;;;;;;7.73;5.40;;;10.00;60.20;;;;;;5022623;28;20436;-42
2021/01/28 07:47:05;;;;;;;7.97;5.60;;;10.20;59.50;;;;;;5029327;28;20466;-42
2021/01/28 07:49:35;;;;;;;8.40;6.17;;;10.10;59.80;;;;;;5014554;28;20491;-42
2021/01/28 07:52:00;;;;;;;7.43;6.20;;;10.30;59.70;;;;;;5027215;28;20846;-43
2021/01/28 07:54:29;;;;;;;7.60;5.03;;;10.20;59.80;;;;;;5029089;28;20436;-43
2021/01/28 07:57:08;;;;;;;5.40;4.73;;;10.10;60.30;;;;;;5021398;28;20969;-43
2021/01/28 07:59:35;;;;;;;3.90;3.60;;;9.60;63.50;;;;;;5029781;28;20471;-43
2021/01/28 08:02:27;;;;;;;6.37;4.70;;;9.20;65.50;;;;;;5019388;28;20454;-42
2021/01/28 08:05:05;;;;;;;5.60;4.50;;;9.30;65.90;;;;;;5030317;28;20444;-42
2021/01/28 08:07:40;;;;;;;6.60;4.03;;;9.40;65.70;;;;;;5028584;28;20479;-42
2021/01/28 08:10:12;;;;;;;4.77;3.10;;;9.80;65.00;;;;;;5024858;28;20491;-42
2021/01/28 08:12:51;;;;;;;4.40;3.90;;;10.20;63.40;;;;;;5024906;28;20715;-42
2021/01/28 08:15:19;;;;;;;5.50;4.37;;;10.60;64.50;;;;;;5024508;28;20508;-42
2021/01/28 08:17:45;;;;;;;6.30;3.70;;;11.10;63.70;;;;;;5042644;28;20524;-41
2021/01/28 08:20:22;;;;;;;2.80;2.60;;;11.50;60.20;;;;;;5028643;28;20526;-41
2021/01/28 08:22:58;;;;;;;4.13;2.50;;;11.70;59.10;;;;;;5026615;28;20197;-41
2021/01/28 08:25:26;;;;;;;2.70;2.50;;;11.80;59.70;;;;;;5028389;28;20446;-41
2021/01/28 08:27:51;;;;;;;4.30;3.90;;;12.20;59.30;;;;;;5013481;28;20448;-42
2021/01/28 08:30:20;;;;;;;3.83;3.50;;;12.70;58.20;;;;;;5014586;28;20499;-42
2021/01/28 08:32:52;;;;;;;6.30;4.40;;;13.00;56.40;;;;;;5024009;28;20613;-42
2021/01/28 08:35:22;;;;;;;6.17;5.57;;;13.10;55.80;;;;;;5028547;28;20444;-42
2021/01/28 08:37:48;;;;;;;6.23;5.33;;;13.10;55.40;;;;;;5030471;28;21163;-42
2021/01/28 08:40:22;;;;;;;4.10;3.40;;;12.90;55.30;;;;;;5021919;28;20523;-41
2021/01/28 08:42:49;;;;;;;3.93;3.63;;;12.60;55.80;;;;;;5026068;28;20679;-42
2021/01/28 08:45:26;;;;;;;4.57;3.87;;;12.30;56.30;;;;;;5029688;28;20845;-41
2021/01/28 08:48:01;;;;;;;4.37;3.90;;;12.20;56.80;;;;;;5030420;28;20556;-42
2021/01/28 08:50:29;;;;;;;4.40;4.00;;;11.90;57.90;;;;;;5030988;28;21102;-42
2021/01/28 08:53:01;;;;;;;3.90;3.50;;;12.00;57.90;;;;;;5014444;28;20447;-41
2021/01/28 08:55:31;;;;;;;4.07;3.13;;;11.90;57.50;;;;;;5035101;28;20530;-42
2021/01/28 08:58:26;;;;;;;3.97;3.57;;;11.90;57.90;;;;;;5028034;28;20443;-42
2021/01/28 09:01:00;;;;;;;3.63;3.30;;;11.90;57.80;;;;;;5021606;28;20432;-42
2021/01/28 09:03:31;;;;;;;4.10;3.20;;;11.80;58.00;;;;;;5027724;28;20939;-41
2021/01/28 09:06:01;;;;;;;4.00;3.10;;;11.70;58.40;;;;;;5027933;28;20436;-42
2021/01/28 09:08:29;;;;;;;3.40;3.07;;;11.60;58.90;;;;;;5026786;28;20474;-42
2021/01/28 09:11:11;;;;;;;4.00;2.90;;;11.30;59.70;;;;;;5028413;28;20479;-42
2021/01/28 09:13:37;;;;;;;3.40;3.10;;;11.40;59.80;;;;;;5025863;28;20428;-42
2021/01/28 09:16:05;;;;;;;3.50;3.20;;;11.20;60.20;;;;;;5028673;28;20440;-42
2021/01/28 09:18:34;;;;;;;3.43;3.13;;;11.00;61.20;;;;;;5025639;28;20471;-41
2021/01/28 09:21:17;;;;;;;4.73;2.87;;;10.90;61.10;;;;;;5026313;28;20436;-42
2021/01/28 09:23:57;;;;;;;5.97;4.20;;;10.60;62.50;;;;;;5024928;28;20444;-42
2021/01/28 09:26:36;;;;;;;8.60;4.67;;;10.70;62.80;;;;;;5025742;28;20443;-41
2021/01/28 09:29:30;;;;;;;8.83;4.10;;;10.90;62.00;;;;;;5027688;28;20977;-42
2021/01/28 09:32:13;;;;;;;3.60;2.50;;;10.90;61.70;;;;;;5026869;28;20951;-41
2021/01/28 09:34:40;;;;;;;4.90;3.70;;;10.60;63.30;;;;;;5026419;28;20928;-42
2021/01/28 09:37:17;;;;;;;3.10;2.80;;;10.80;63.60;;;;;;5026571;28;20804;-41
2021/01/28 09:39:49;;;;;;;2.30;2.10;;;10.90;62.80;;;;;;5026457;28;20448;-42
2021/01/28 09:42:25;;;;;;;3.50;3.20;;;10.90;63.10;;;;;;5026830;28;20507;-41
2021/01/28 09:44:52;;;;;;;2.43;2.23;;;10.90;62.30;;;;;;5027640;28;20459;-41
2021/01/28 09:47:20;;;;;;;2.93;2.63;;;10.90;63.20;;;;;;5027720;28;20498;-41
2021/01/28 09:49:48;;;;;;;3.73;2.43;;;11.00;62.90;;;;;;5023476;28;20490;-41
2021/01/28 09:52:22;;;;;;;2.87;2.30;;;11.10;62.70;;;;;;5026585;28;20475;-42
2021/01/28 09:55:08;;;;;;;2.90;2.60;;;11.10;62.40;;;;;;5019303;28;20442;-42
2021/01/28 09:57:35;;;;;;;2.20;2.00;;;11.40;62.00;;;;;;5020087;28;20447;-42
2021/01/28 10:00:00;;;;;;;2.47;2.20;;;11.00;62.80;;;;;;5020409;28;20478;-42
2021/01/28 10:02:58;;;;;;;2.77;2.43;;;11.00;63.20;;;;;;5017259;28;20804;-42
2021/01/28 10:05:35;;;;;;;3.53;3.00;;;11.40;62.70;;;;;;5021373;28;20204;-41
2021/01/28 10:08:01;;;;;;;5.67;4.80;;;11.60;62.00;;;;;;5020092;28;20590;-42
2021/01/28 10:10:29;;;;;;;4.63;3.23;;;11.90;61.30;;;;;;5026736;28;20597;-42
2021/01/28 10:12:58;;;;;;;2.53;2.30;;;12.00;60.60;;;;;;5020912;28;20491;-42
2021/01/28 10:15:24;;;;;;;3.17;2.20;;;12.00;60.70;;;;;;5030336;28;20633;-42
2021/01/28 10:17:51;;;;;;;2.53;2.33;;;12.10;60.60;;;;;;5031129;28;20439;-42
2021/01/28 10:20:17;;;;;;;2.47;1.93;;;12.00;59.90;;;;;;5023389;28;20934;-42
2021/01/28 10:22:43;;;;;;;1.60;1.50;;;11.90;60.40;;;;;;5029437;28;20435;-42
2021/01/28 10:25:12;;;;;;;3.33;2.50;;;11.60;61.20;;;;;;5028702;28;20204;-42
2021/01/28 10:27:38;;;;;;;2.70;2.23;;;11.60;61.90;;;;;;5024518;28;20436;-42
2021/01/28 10:30:06;;;;;;;1.70;1.60;;;11.60;62.10;;;;;;5030338;28;20491;-42
2021/01/28 10:32:32;;;;;;;6.33;2.40;;;11.60;61.90;;;;;;5021975;28;20612;-42
2021/01/28 10:34:58;;;;;;;2.13;1.93;;;11.70;62.00;;;;;;5020411;28;20437;-42
2021/01/28 10:37:23;;;;;;;2.70;2.17;;;11.70;62.10;;;;;;5032603;28;20284;-42
2021/01/28 10:39:49;;;;;;;2.60;2.40;;;11.70;62.00;;;;;;5023651;28;20508;-42
2021/01/28 10:42:31;;;;;;;2.47;2.23;;;11.70;61.80;;;;;;5032521;28;20196;-43
2021/01/28 10:44:56;;;;;;;2.10;1.83;;;11.80;61.90;;;;;;5025195;28;20201;-42
2021/01/28 10:47:22;;;;;;;2.33;2.03;;;11.70;61.90;;;;;;5019569;28;20440;-42
2021/01/28 10:49:47;;;;;;;2.30;2.10;;;11.80;62.00;;;;;;5022075;28;20279;-42
2021/01/28 10:52:13;;;;;;;2.27;1.67;;;11.80;62.00;;;;;;5026704;28;20673;-42
2021/01/28 10:54:38;;;;;;;2.77;2.20;;;11.80;61.90;;;;;;5027567;28;20193;-43
2021/01/28 10:57:04;;;;;;;2.30;2.10;;;11.90;61.90;;;;;;5027020;28;20327;-43
2021/01/28 10:59:30;;;;;;;3.80;2.10;;;11.90;62.10;;;;;;5029320;28;20726;-42
2021/01/28 11:01:56;;;;;;;2.33;2.13;;;11.80;62.60;;;;;;5020075;28;20528;-43
2021/01/28 11:04:22;;;;;;;1.93;1.73;;;11.80;63.30;;;;;;5024710;28;20186;-43
2021/01/28 11:06:47;;;;;;;1.70;1.40;;;11.90;63.50;;;;;;5032204;28;20819;-43
2021/01/28 11:09:13;;;;;;;4.20;1.70;;;12.00;63.30;;;;;;5029840;28;20189;-43
2021/01/28 11:11:38;;;;;;;3.10;1.60;;;12.00;63.70;;;;;;5028684;28;20198;-43
2021/01/28 11:14:04;;;;;;;2.57;1.67;;;11.90;64.00;;;;;;5028688;28;20193;-42
2021/01/28 11:16:34;;;;;;;1.53;1.43;;;11.70;64.60;;;;;;5030905;28;20284;-42
2021/01/28 11:18:59;;;;;;;2.03;1.17;;;11.60;65.10;;;;;;5027071;28;20205;-43
2021/01/28 11:21:25;;;;;;;1.27;1.17;;;11.50;65.70;;;;;;5023020;28;20915;-42
2021/01/28 11:23:50;;;;;;;1.93;1.27;;;11.40;66.40;;;;;;5024418;28;20200;-42
2021/01/28 11:26:16;;;;;;;1.07;1.07;;;11.40;67.00;;;;;;5029021;28;20217;-43
2021/01/28 11:28:42;;;;;;;2.07;1.10;;;11.30;67.10;;;;;;5028178;28;20193;-43
2021/01/28 11:31:08;;;;;;;1.70;1.20;;;11.30;67.40;;;;;;5030037;28;20237;-43
2021/01/28 11:33:34;;;;;;;1.43;1.33;;;11.40;67.60;;;;;;5026243;28;20534;-43
2021/01/28 11:36:00;;;;;;;1.30;1.20;;;11.60;67.10;;;;;;5027405;28;20197;-43
2021/01/28 11:38:26;;;;;;;1.10;1.00;;;11.60;66.70;;;;;;5028472;28;20800;-42
2021/01/28 11:40:52;;;;;;;1.53;1.10;;;11.60;66.90;;;;;;5028248;28;20442;-42
2021/01/28 11:43:18;;;;;;;1.37;1.20;;;11.70;66.40;;;;;;5027063;28;20841;-42
2021/01/28 11:45:43;;;;;;;1.60;1.50;;;11.60;66.70;;;;;;5029190;28;20193;-42
2021/01/28 11:48:09;;;;;;;3.13;0.97;;;11.40;68.10;;;;;;5030197;28;20185;-42
2021/01/28 11:50:35;;;;;;;1.73;1.20;;;11.40;68.40;;;;;;5029321;28;20340;-42
2021/01/28 11:53:01;;;;;;;1.13;0.97;;;11.30;68.80;;;;;;5028167;28;20547;-42
2021/01/28 11:55:28;;;;;;;1.57;1.30;;;11.40;68.80;;;;;;5029439;28;20461;-42
2021/01/28 11:57:54;;;;;;;1.10;1.00;;;11.00;70.00;;;;;;5029877;28;20490;-42
2021/01/28 12:00:22;;;;;;;1.20;1.10;;;11.00;70.60;;;;;;5030416;28;20427;-42
2021/01/28 12:02:48;;;;;;;1.10;1.00;;;11.20;70.40;;;;;;5028886;28;20442;-42
2021/01/28 12:05:17;;;;;;;1.67;1.47;;;11.30;69.60;;;;;;5031521;28;20814;-42
2021/01/28 12:07:42;;;;;;;1.57;1.10;;;11.40;69.60;;;;;;5027365;28;20468;-42
2021/01/28 12:10:11;;;;;;;1.03;0.93;;;11.50;69.30;;;;;;5028634;28;20468;-42
2021/01/28 12:12:37;;;;;;;1.23;1.13;;;11.50;69.00;;;;;;5026926;28;20589;-42
2021/01/28 12:15:05;;;;;;;1.43;1.10;;;11.30;69.60;;;;;;5026486;28;20475;-42
2021/01/28 12:17:30;;;;;;;1.30;1.20;;;11.40;69.70;;;;;;5027521;28;20932;-42
2021/01/28 12:19:56;;;;;;;0.80;0.80;;;11.40;69.80;;;;;;5024172;28;20495;-42
2021/01/28 12:22:21;;;;;;;1.77;1.17;;;11.40;69.80;;;;;;5027208;28;20289;-43
2021/01/28 12:24:47;;;;;;;1.17;0.90;;;11.50;69.80;;;;;;5026442;28;20196;-43
2021/01/28 12:27:13;;;;;;;1.57;1.03;;;11.50;69.60;;;;;;5028529;28;20637;-42
2021/01/28 12:29:40;;;;;;;1.30;0.93;;;11.40;70.20;;;;;;5028053;28;20268;-42
2021/01/28 12:32:07;;;;;;;1.43;1.27;;;11.30;70.30;;;;;;5029946;28;20189;-42
2021/01/28 12:34:33;;;;;;;3.03;1.10;;;11.30;71.00;;;;;;5029648;28;20523;-42
2021/01/28 12:36:58;;;;;;;1.67;0.90;;;11.40;70.90;;;;;;5026630;28;21268;-42
2021/01/28 12:39:24;;;;;;;1.47;1.20;;;11.40;70.80;;;;;;5024811;28;20575;-42
2021/01/28 12:41:49;;;;;;;1.07;1.00;;;11.10;71.90;;;;;;5030050;28;20648;-42
2021/01/28 12:44:15;;;;;;;1.93;1.40;;;11.30;72.50;;;;;;5029176;28;20195;-42
2021/01/28 12:46:41;;;;;;;1.80;1.30;;;11.50;71.90;;;;;;5031380;28;20201;-42
2021/01/28 12:49:06;;;;;;;2.13;1.00;;;11.60;72.10;;;;;;5027850;28;20705;-42
2021/01/28 12:51:32;;;;;;;1.20;1.10;;;11.30;72.40;;;;;;5027173;28;20229;-42
2021/01/28 12:53:57;;;;;;;1.17;1.03;;;11.40;73.20;;;;;;5029217;28;20527;-42
2021/01/28 12:56:23;;;;;;;2.07;1.23;;;11.40;73.00;;;;;;5027754;28;20201;-42
2021/01/28 12:58:49;;;;;;;3.40;1.30;;;11.50;73.20;;;;;;5022581;28;20204;-42
2021/01/28 13:01:14;;;;;;;1.60;1.37;;;11.30;73.70;;;;;;5025397;28;20256;-42
2021/01/28 13:03:40;;;;;;;3.20;1.50;;;11.40;74.50;;;;;;5028267;28;20264;-42
2021/01/28 13:06:05;;;;;;;1.67;1.20;;;11.40;74.60;;;;;;5025988;28;20193;-42
2021/01/28 13:08:31;;;;;;;2.13;1.93;;;11.40;74.50;;;;;;5024758;28;20268;-42
2021/01/28 13:10:57;;;;;;;1.30;1.10;;;11.60;74.50;;;;;;5015762;28;20260;-42
2021/01/28 13:13:22;;;;;;;5.40;1.83;;;11.80;74.00;;;;;;5026446;28;20228;-42